sensor_id;sensor_type;location;lat;lon;timestamp;temperature;humidity
38488;DHT22;57384;51.986;4.458;2022-08-21T00:01:55;19.00;50.60
38488;DHT22;57384;51.986;4.458;2022-08-21T00:04:39;19.00;50.60
38488;DHT22;57384;51.986;4.458;2022-08-21T00:07:24;18.90;50.60
38488;DHT22;57384;51.986;4.458;2022-08-21T00:10:09;18.90;50.60
38488;DHT22;57384;51.986;4.458;2022-08-21T00:12:53;18.90;50.60
38488;DHT22;57384;51.986;4.458;2022-08-21T00:15:37;18.90;50.60
38488;DHT22;57384;51.986;4.458;2022-08-21T00:18:22;18.90;50.70
38488;DHT22;57384;51.986;4.458;2022-08-21T00:21:06;18.90;50.70
38488;DHT22;57384;51.986;4.458;2022-08-21T00:23:50;18.90;50.70
38488;DHT22;57384;51.986;4.458;2022-08-21T00:26:35;18.80;50.70
38488;DHT22;57384;51.986;4.458;2022-08-21T00:29:19;18.80;50.80
38488;DHT22;57384;51.986;4.458;2022-08-21T00:32:03;18.80;50.70
38488;DHT22;57384;51.986;4.458;2022-08-21T00:34:47;18.80;50.80
38488;DHT22;57384;51.986;4.458;2022-08-21T00:37:33;18.80;50.80
38488;DHT22;57384;51.986;4.458;2022-08-21T00:40:24;18.80;50.80
38488;DHT22;57384;51.986;4.458;2022-08-21T00:43:09;18.80;50.90
38488;DHT22;57384;51.986;4.458;2022-08-21T00:45:54;18.80;50.90
38488;DHT22;57384;51.986;4.458;2022-08-21T00:48:42;18.80;50.90
38488;DHT22;57384;51.986;4.458;2022-08-21T00:51:35;18.70;50.90
38488;DHT22;57384;51.986;4.458;2022-08-21T00:54:21;18.70;50.90
38488;DHT22;57384;51.986;4.458;2022-08-21T00:57:24;18.70;51.00
38488;DHT22;57384;51.986;4.458;2022-08-21T01:00:11;18.70;51.00
38488;DHT22;57384;51.986;4.458;2022-08-21T01:02:56;18.70;51.00
38488;DHT22;57384;51.986;4.458;2022-08-21T01:05:41;18.70;51.00
38488;DHT22;57384;51.986;4.458;2022-08-21T01:08:26;18.70;51.10
38488;DHT22;57384;51.986;4.458;2022-08-21T01:11:11;18.70;51.10
38488;DHT22;57384;51.986;4.458;2022-08-21T01:13:56;18.70;51.10
38488;DHT22;57384;51.986;4.458;2022-08-21T01:16:41;18.60;51.10
38488;DHT22;57384;51.986;4.458;2022-08-21T01:19:26;18.60;51.20
38488;DHT22;57384;51.986;4.458;2022-08-21T01:22:11;18.60;51.20
38488;DHT22;57384;51.986;4.458;2022-08-21T01:24:55;18.60;51.20
38488;DHT22;57384;51.986;4.458;2022-08-21T01:27:39;18.60;51.20
38488;DHT22;57384;51.986;4.458;2022-08-21T01:30:25;18.60;51.30
38488;DHT22;57384;51.986;4.458;2022-08-21T01:33:10;18.50;51.30
38488;DHT22;57384;51.986;4.458;2022-08-21T01:35:54;18.50;51.30
38488;DHT22;57384;51.986;4.458;2022-08-21T01:38:38;18.50;51.90
38488;DHT22;57384;51.986;4.458;2022-08-21T01:41:23;18.50;51.40
38488;DHT22;57384;51.986;4.458;2022-08-21T01:44:07;18.50;51.40
38488;DHT22;57384;51.986;4.458;2022-08-21T01:46:51;18.50;51.50
38488;DHT22;57384;51.986;4.458;2022-08-21T01:49:36;18.50;51.50
38488;DHT22;57384;51.986;4.458;2022-08-21T01:52:20;18.40;51.50
38488;DHT22;57384;51.986;4.458;2022-08-21T01:55:05;18.40;51.50
38488;DHT22;57384;51.986;4.458;2022-08-21T01:57:50;18.40;51.50
38488;DHT22;57384;51.986;4.458;2022-08-21T02:00:34;18.40;51.60
38488;DHT22;57384;51.986;4.458;2022-08-21T02:03:20;18.30;51.60
38488;DHT22;57384;51.986;4.458;2022-08-21T02:06:05;18.30;51.60
38488;DHT22;57384;51.986;4.458;2022-08-21T02:08:49;18.30;51.60
38488;DHT22;57384;51.986;4.458;2022-08-21T02:11:34;18.30;51.70
38488;DHT22;57384;51.986;4.458;2022-08-21T02:14:19;18.30;51.70
38488;DHT22;57384;51.986;4.458;2022-08-21T02:17:03;18.20;51.70
38488;DHT22;57384;51.986;4.458;2022-08-21T02:19:47;18.20;51.70
38488;DHT22;57384;51.986;4.458;2022-08-21T02:22:31;18.20;51.70
38488;DHT22;57384;51.986;4.458;2022-08-21T02:25:16;18.20;51.80
38488;DHT22;57384;51.986;4.458;2022-08-21T02:28:05;18.20;51.80
38488;DHT22;57384;51.986;4.458;2022-08-21T02:30:50;18.20;51.90
38488;DHT22;57384;51.986;4.458;2022-08-21T02:33:34;18.20;51.90
38488;DHT22;57384;51.986;4.458;2022-08-21T02:36:20;18.10;51.80
38488;DHT22;57384;51.986;4.458;2022-08-21T02:39:05;18.10;51.90
38488;DHT22;57384;51.986;4.458;2022-08-21T02:41:49;18.10;51.90
38488;DHT22;57384;51.986;4.458;2022-08-21T02:44:33;18.10;51.90
38488;DHT22;57384;51.986;4.458;2022-08-21T02:47:17;18.10;52.00
38488;DHT22;57384;51.986;4.458;2022-08-21T02:50:04;18.10;52.00
38488;DHT22;57384;51.986;4.458;2022-08-21T02:52:49;18.10;52.00
38488;DHT22;57384;51.986;4.458;2022-08-21T02:55:33;18.00;52.00
38488;DHT22;57384;51.986;4.458;2022-08-21T02:58:22;18.00;52.00
38488;DHT22;57384;51.986;4.458;2022-08-21T03:01:07;18.00;52.00
38488;DHT22;57384;51.986;4.458;2022-08-21T03:03:51;18.00;52.10
38488;DHT22;57384;51.986;4.458;2022-08-21T03:06:35;18.00;52.10
38488;DHT22;57384;51.986;4.458;2022-08-21T03:09:20;18.00;52.10
38488;DHT22;57384;51.986;4.458;2022-08-21T03:12:04;17.90;52.10
38488;DHT22;57384;51.986;4.458;2022-08-21T03:14:48;17.90;52.10
38488;DHT22;57384;51.986;4.458;2022-08-21T03:17:33;17.90;52.20
38488;DHT22;57384;51.986;4.458;2022-08-21T03:20:19;17.90;52.20
38488;DHT22;57384;51.986;4.458;2022-08-21T03:23:04;17.90;52.20
38488;DHT22;57384;51.986;4.458;2022-08-21T03:25:48;17.90;52.20
38488;DHT22;57384;51.986;4.458;2022-08-21T03:28:32;17.80;52.20
38488;DHT22;57384;51.986;4.458;2022-08-21T03:31:17;17.90;52.30
38488;DHT22;57384;51.986;4.458;2022-08-21T03:34:01;17.80;52.30
38488;DHT22;57384;51.986;4.458;2022-08-21T03:36:45;17.80;52.30
38488;DHT22;57384;51.986;4.458;2022-08-21T03:39:29;17.80;52.30
38488;DHT22;57384;51.986;4.458;2022-08-21T03:42:13;17.80;52.40
38488;DHT22;57384;51.986;4.458;2022-08-21T03:44:59;17.80;52.40
38488;DHT22;57384;51.986;4.458;2022-08-21T03:47:51;17.80;52.50
38488;DHT22;57384;51.986;4.458;2022-08-21T03:50:37;17.80;52.50
38488;DHT22;57384;51.986;4.458;2022-08-21T03:53:22;17.70;52.40
38488;DHT22;57384;51.986;4.458;2022-08-21T03:56:06;17.70;52.50
38488;DHT22;57384;51.986;4.458;2022-08-21T03:58:50;17.70;52.50
38488;DHT22;57384;51.986;4.458;2022-08-21T04:01:35;17.70;52.60
38488;DHT22;57384;51.986;4.458;2022-08-21T04:04:22;17.70;52.60
38488;DHT22;57384;51.986;4.458;2022-08-21T04:07:07;17.70;52.60
38488;DHT22;57384;51.986;4.458;2022-08-21T04:09:51;17.70;52.60
38488;DHT22;57384;51.986;4.458;2022-08-21T04:12:35;17.70;52.60
38488;DHT22;57384;51.986;4.458;2022-08-21T04:15:20;17.70;52.70
38488;DHT22;57384;51.986;4.458;2022-08-21T04:18:04;17.70;52.70
38488;DHT22;57384;51.986;4.458;2022-08-21T04:20:49;17.70;52.70
38488;DHT22;57384;51.986;4.458;2022-08-21T04:23:34;17.70;52.70
38488;DHT22;57384;51.986;4.458;2022-08-21T04:26:18;17.70;52.80
38488;DHT22;57384;51.986;4.458;2022-08-21T04:29:02;17.60;52.70
38488;DHT22;57384;51.986;4.458;2022-08-21T04:31:46;17.60;52.70
38488;DHT22;57384;51.986;4.458;2022-08-21T04:34:30;17.60;52.80
38488;DHT22;57384;51.986;4.458;2022-08-21T04:37:15;17.60;52.80
38488;DHT22;57384;51.986;4.458;2022-08-21T04:39:59;17.60;52.90
38488;DHT22;57384;51.986;4.458;2022-08-21T04:42:47;17.60;52.90
38488;DHT22;57384;51.986;4.458;2022-08-21T04:45:33;17.60;52.90
38488;DHT22;57384;51.986;4.458;2022-08-21T04:48:19;17.60;53.00
38488;DHT22;57384;51.986;4.458;2022-08-21T04:51:07;17.60;53.00
38488;DHT22;57384;51.986;4.458;2022-08-21T04:53:54;17.60;53.00
38488;DHT22;57384;51.986;4.458;2022-08-21T04:56:40;17.60;53.60
38488;DHT22;57384;51.986;4.458;2022-08-21T04:59:28;17.60;53.10
38488;DHT22;57384;51.986;4.458;2022-08-21T05:02:14;17.60;53.10
38488;DHT22;57384;51.986;4.458;2022-08-21T05:04:58;17.60;53.10
38488;DHT22;57384;51.986;4.458;2022-08-21T05:07:42;17.60;53.10
38488;DHT22;57384;51.986;4.458;2022-08-21T05:10:27;17.60;53.10
38488;DHT22;57384;51.986;4.458;2022-08-21T05:13:13;17.60;53.10
38488;DHT22;57384;51.986;4.458;2022-08-21T05:15:57;17.60;53.10
38488;DHT22;57384;51.986;4.458;2022-08-21T05:18:42;17.60;53.10
38488;DHT22;57384;51.986;4.458;2022-08-21T05:21:26;17.60;53.10
38488;DHT22;57384;51.986;4.458;2022-08-21T05:24:11;17.60;53.10
38488;DHT22;57384;51.986;4.458;2022-08-21T05:26:55;17.60;53.10
38488;DHT22;57384;51.986;4.458;2022-08-21T05:29:39;17.60;53.10
38488;DHT22;57384;51.986;4.458;2022-08-21T05:32:23;17.60;53.20
38488;DHT22;57384;51.986;4.458;2022-08-21T05:35:08;17.60;53.10
38488;DHT22;57384;51.986;4.458;2022-08-21T05:37:52;17.60;53.10
38488;DHT22;57384;51.986;4.458;2022-08-21T05:40:36;17.70;53.10
38488;DHT22;57384;51.986;4.458;2022-08-21T05:43:20;17.70;53.10
38488;DHT22;57384;51.986;4.458;2022-08-21T05:46:06;17.70;53.10
38488;DHT22;57384;51.986;4.458;2022-08-21T05:48:50;17.70;53.00
38488;DHT22;57384;51.986;4.458;2022-08-21T05:51:39;17.80;53.10
38488;DHT22;57384;51.986;4.458;2022-08-21T05:54:24;17.80;53.00
38488;DHT22;57384;51.986;4.458;2022-08-21T05:57:08;17.80;53.00
38488;DHT22;57384;51.986;4.458;2022-08-21T06:00:00;17.90;53.00
38488;DHT22;57384;51.986;4.458;2022-08-21T06:02:53;17.90;53.00
38488;DHT22;57384;51.986;4.458;2022-08-21T06:05:58;18.00;53.00
38488;DHT22;57384;51.986;4.458;2022-08-21T06:09:00;18.00;53.00
38488;DHT22;57384;51.986;4.458;2022-08-21T06:11:57;18.00;53.00
38488;DHT22;57384;51.986;4.458;2022-08-21T06:17:44;18.20;53.00
38488;DHT22;57384;51.986;4.458;2022-08-21T06:20:31;18.20;53.00
38488;DHT22;57384;51.986;4.458;2022-08-21T06:23:23;18.30;53.10
38488;DHT22;57384;51.986;4.458;2022-08-21T06:26:08;18.30;53.10
38488;DHT22;57384;51.986;4.458;2022-08-21T06:28:53;18.40;53.10
38488;DHT22;57384;51.986;4.458;2022-08-21T06:31:43;18.50;53.20
38488;DHT22;57384;51.986;4.458;2022-08-21T06:34:30;18.50;53.20
38488;DHT22;57384;51.986;4.458;2022-08-21T06:37:17;18.60;53.20
38488;DHT22;57384;51.986;4.458;2022-08-21T06:43:08;18.80;53.30
38488;DHT22;57384;51.986;4.458;2022-08-21T06:45:59;18.80;53.30
38488;DHT22;57384;51.986;4.458;2022-08-21T06:51:53;19.00;53.30
38488;DHT22;57384;51.986;4.458;2022-08-21T06:58:06;19.20;53.50
38488;DHT22;57384;51.986;4.458;2022-08-21T07:00:50;19.30;53.50
38488;DHT22;57384;51.986;4.458;2022-08-21T07:06:55;19.50;53.40
38488;DHT22;57384;51.986;4.458;2022-08-21T07:09:47;19.60;53.40
38488;DHT22;57384;51.986;4.458;2022-08-21T07:16:08;19.80;53.30
38488;DHT22;57384;51.986;4.458;2022-08-21T07:28:26;20.40;53.20
38488;DHT22;57384;51.986;4.458;2022-08-21T07:31:17;20.60;53.20
38488;DHT22;57384;51.986;4.458;2022-08-21T07:37:20;20.90;53.10
38488;DHT22;57384;51.986;4.458;2022-08-21T07:46:20;21.50;53.00
38488;DHT22;57384;51.986;4.458;2022-08-21T07:52:28;21.90;52.80
38488;DHT22;57384;51.986;4.458;2022-08-21T07:55:16;22.10;52.90
38488;DHT22;57384;51.986;4.458;2022-08-21T08:01:11;22.60;52.90
38488;DHT22;57384;51.986;4.458;2022-08-21T08:04:05;22.80;52.80
38488;DHT22;57384;51.986;4.458;2022-08-21T08:06:58;23.10;52.70
38488;DHT22;57384;51.986;4.458;2022-08-21T08:10:00;23.30;52.60
38488;DHT22;57384;51.986;4.458;2022-08-21T08:12:45;23.60;52.70
38488;DHT22;57384;51.986;4.458;2022-08-21T08:15:29;23.90;52.60
38488;DHT22;57384;51.986;4.458;2022-08-21T08:18:14;24.10;52.50
38488;DHT22;57384;51.986;4.458;2022-08-21T08:21:07;24.40;52.50
38488;DHT22;57384;51.986;4.458;2022-08-21T08:23:59;24.70;52.50
38488;DHT22;57384;51.986;4.458;2022-08-21T08:26:54;24.90;52.50
38488;DHT22;57384;51.986;4.458;2022-08-21T08:29:41;25.10;52.50
38488;DHT22;57384;51.986;4.458;2022-08-21T08:32:33;25.30;52.70
38488;DHT22;57384;51.986;4.458;2022-08-21T08:35:34;25.50;52.80
38488;DHT22;57384;51.986;4.458;2022-08-21T08:38:29;25.70;53.00
38488;DHT22;57384;51.986;4.458;2022-08-21T08:44:29;26.10;53.20
38488;DHT22;57384;51.986;4.458;2022-08-21T08:47:17;26.30;53.40
38488;DHT22;57384;51.986;4.458;2022-08-21T08:50:06;26.40;53.50
38488;DHT22;57384;51.986;4.458;2022-08-21T08:52:55;26.60;53.60
38488;DHT22;57384;51.986;4.458;2022-08-21T09:11:57;27.80;53.80
38488;DHT22;57384;51.986;4.458;2022-08-21T09:14:47;28.00;53.80
38488;DHT22;57384;51.986;4.458;2022-08-21T09:23:43;28.50;54.00
38488;DHT22;57384;51.986;4.458;2022-08-21T09:26:35;28.60;54.00
38488;DHT22;57384;51.986;4.458;2022-08-21T09:29:28;28.70;54.00
38488;DHT22;57384;51.986;4.458;2022-08-21T09:32:30;28.90;54.10
38488;DHT22;57384;51.986;4.458;2022-08-21T09:35:47;29.00;54.20
38488;DHT22;57384;51.986;4.458;2022-08-21T09:38:51;29.20;54.30
38488;DHT22;57384;51.986;4.458;2022-08-21T09:41:36;29.30;54.30
38488;DHT22;57384;51.986;4.458;2022-08-21T09:44:24;29.40;54.30
38488;DHT22;57384;51.986;4.458;2022-08-21T09:47:10;29.40;54.20
38488;DHT22;57384;51.986;4.458;2022-08-21T09:54:16;29.60;54.40
38488;DHT22;57384;51.986;4.458;2022-08-21T09:59:26;29.80;54.40
38488;DHT22;57384;51.986;4.458;2022-08-21T10:05:28;29.90;54.40
38488;DHT22;57384;51.986;4.458;2022-08-21T10:08:22;29.90;54.30
38488;DHT22;57384;51.986;4.458;2022-08-21T10:11:08;29.90;54.30
38488;DHT22;57384;51.986;4.458;2022-08-21T10:19:55;30.20;54.10
38488;DHT22;57384;51.986;4.458;2022-08-21T10:25:58;30.50;53.80
38488;DHT22;57384;51.986;4.458;2022-08-21T10:28:39;30.60;53.70
38488;DHT22;57384;51.986;4.458;2022-08-21T10:33:46;30.80;53.60
38488;DHT22;57384;51.986;4.458;2022-08-21T10:39:15;30.90;53.50
38488;DHT22;57384;51.986;4.458;2022-08-21T10:44:16;31.00;53.40
38488;DHT22;57384;51.986;4.458;2022-08-21T10:46:56;31.00;53.30
38488;DHT22;57384;51.986;4.458;2022-08-21T10:54:30;31.00;53.00
38488;DHT22;57384;51.986;4.458;2022-08-21T10:57:00;31.00;53.00
38488;DHT22;57384;51.986;4.458;2022-08-21T10:59:31;31.10;53.00
38488;DHT22;57384;51.986;4.458;2022-08-21T11:07:14;31.10;52.60
38488;DHT22;57384;51.986;4.458;2022-08-21T11:09:43;31.10;52.50
38488;DHT22;57384;51.986;4.458;2022-08-21T11:12:16;31.10;52.40
38488;DHT22;57384;51.986;4.458;2022-08-21T11:17:22;31.20;52.30
38488;DHT22;57384;51.986;4.458;2022-08-21T11:19:54;31.20;52.10
38488;DHT22;57384;51.986;4.458;2022-08-21T11:22:25;31.20;52.00
38488;DHT22;57384;51.986;4.458;2022-08-21T11:25:05;31.30;51.90
38488;DHT22;57384;51.986;4.458;2022-08-21T11:27:42;31.30;51.80
38488;DHT22;57384;51.986;4.458;2022-08-21T11:30:09;31.40;51.70
38488;DHT22;57384;51.986;4.458;2022-08-21T11:38:04;31.60;51.30
38488;DHT22;57384;51.986;4.458;2022-08-21T11:45:47;31.80;50.90
38488;DHT22;57384;51.986;4.458;2022-08-21T11:50:47;32.10;50.60
38488;DHT22;57384;51.986;4.458;2022-08-21T11:53:17;32.20;50.40
38488;DHT22;57384;51.986;4.458;2022-08-21T11:55:47;32.30;50.20
38488;DHT22;57384;51.986;4.458;2022-08-21T11:58:19;32.50;50.10
38488;DHT22;57384;51.986;4.458;2022-08-21T12:00:53;32.60;49.90
38488;DHT22;57384;51.986;4.458;2022-08-21T12:03:23;32.80;49.80
38488;DHT22;57384;51.986;4.458;2022-08-21T12:05:52;33.00;49.60
38488;DHT22;57384;51.986;4.458;2022-08-21T12:08:45;33.20;49.40
38488;DHT22;57384;51.986;4.458;2022-08-21T12:11:23;33.40;49.20
38488;DHT22;57384;51.986;4.458;2022-08-21T12:16:36;33.70;48.80
38488;DHT22;57384;51.986;4.458;2022-08-21T12:19:07;33.90;48.70
38488;DHT22;57384;51.986;4.458;2022-08-21T12:21:58;34.00;48.50
38488;DHT22;57384;51.986;4.458;2022-08-21T12:25:03;34.20;48.30
38488;DHT22;57384;51.986;4.458;2022-08-21T12:28:01;34.30;48.00
38488;DHT22;57384;51.986;4.458;2022-08-21T12:32:56;34.50;47.50
38488;DHT22;57384;51.986;4.458;2022-08-21T12:35:41;34.60;47.40
38488;DHT22;57384;51.986;4.458;2022-08-21T12:38:17;34.60;47.30
38488;DHT22;57384;51.986;4.458;2022-08-21T12:40:55;34.70;47.20
38488;DHT22;57384;51.986;4.458;2022-08-21T12:43:28;34.70;47.00
38488;DHT22;57384;51.986;4.458;2022-08-21T12:45:55;34.70;46.80
38488;DHT22;57384;51.986;4.458;2022-08-21T12:48:26;34.80;46.60
38488;DHT22;57384;51.986;4.458;2022-08-21T12:50:56;34.80;46.30
38488;DHT22;57384;51.986;4.458;2022-08-21T12:53:30;34.80;46.00
38488;DHT22;57384;51.986;4.458;2022-08-21T12:56:01;34.90;45.90
38488;DHT22;57384;51.986;4.458;2022-08-21T12:58:28;35.10;46.40
38488;DHT22;57384;51.986;4.458;2022-08-21T13:01:00;35.20;45.60
38488;DHT22;57384;51.986;4.458;2022-08-21T13:03:35;35.30;45.40
38488;DHT22;57384;51.986;4.458;2022-08-21T13:06:05;35.40;45.10
38488;DHT22;57384;51.986;4.458;2022-08-21T13:08:34;35.50;44.80
38488;DHT22;57384;51.986;4.458;2022-08-21T13:11:03;35.70;44.60
38488;DHT22;57384;51.986;4.458;2022-08-21T13:13:32;35.80;44.60
38488;DHT22;57384;51.986;4.458;2022-08-21T13:16:00;35.90;44.30
38488;DHT22;57384;51.986;4.458;2022-08-21T13:18:29;36.10;44.10
38488;DHT22;57384;51.986;4.458;2022-08-21T13:21:12;36.10;43.80
38488;DHT22;57384;51.986;4.458;2022-08-21T13:23:40;36.30;43.70
38488;DHT22;57384;51.986;4.458;2022-08-21T13:26:16;36.40;43.50
38488;DHT22;57384;51.986;4.458;2022-08-21T13:28:45;36.50;43.30
38488;DHT22;57384;51.986;4.458;2022-08-21T13:31:12;36.50;43.00
38488;DHT22;57384;51.986;4.458;2022-08-21T13:33:38;36.70;42.70
38488;DHT22;57384;51.986;4.458;2022-08-21T13:36:26;36.80;42.50
38488;DHT22;57384;51.986;4.458;2022-08-21T13:38:55;36.90;42.30
38488;DHT22;57384;51.986;4.458;2022-08-21T13:41:25;37.00;42.00
38488;DHT22;57384;51.986;4.458;2022-08-21T13:44:00;37.10;41.90
38488;DHT22;57384;51.986;4.458;2022-08-21T13:46:29;37.10;41.70
38488;DHT22;57384;51.986;4.458;2022-08-21T13:49:10;37.20;41.40
38488;DHT22;57384;51.986;4.458;2022-08-21T13:51:41;37.20;41.30
38488;DHT22;57384;51.986;4.458;2022-08-21T13:54:29;37.30;41.20
38488;DHT22;57384;51.986;4.458;2022-08-21T13:57:12;37.30;41.00
38488;DHT22;57384;51.986;4.458;2022-08-21T13:59:45;37.30;41.00
38488;DHT22;57384;51.986;4.458;2022-08-21T14:02:16;37.20;41.00
38488;DHT22;57384;51.986;4.458;2022-08-21T14:07:31;37.00;40.70
38488;DHT22;57384;51.986;4.458;2022-08-21T14:10:05;36.90;40.50
38488;DHT22;57384;51.986;4.458;2022-08-21T14:12:37;36.80;40.40
38488;DHT22;57384;51.986;4.458;2022-08-21T14:15:05;36.70;40.30
38488;DHT22;57384;51.986;4.458;2022-08-21T14:17:33;36.60;40.30
38488;DHT22;57384;51.986;4.458;2022-08-21T14:19:59;36.50;40.30
38488;DHT22;57384;51.986;4.458;2022-08-21T14:22:31;36.30;40.20
38488;DHT22;57384;51.986;4.458;2022-08-21T14:25:01;36.20;40.40
38488;DHT22;57384;51.986;4.458;2022-08-21T14:27:28;36.10;40.30
38488;DHT22;57384;51.986;4.458;2022-08-21T14:29:57;36.00;40.30
38488;DHT22;57384;51.986;4.458;2022-08-21T14:32:25;35.90;40.30
38488;DHT22;57384;51.986;4.458;2022-08-21T14:34:53;35.80;40.30
38488;DHT22;57384;51.986;4.458;2022-08-21T14:37:19;35.60;40.30
38488;DHT22;57384;51.986;4.458;2022-08-21T14:39:45;35.50;40.40
38488;DHT22;57384;51.986;4.458;2022-08-21T14:42:13;35.40;40.40
38488;DHT22;57384;51.986;4.458;2022-08-21T14:44:40;35.20;40.40
38488;DHT22;57384;51.986;4.458;2022-08-21T14:47:07;35.10;40.40
38488;DHT22;57384;51.986;4.458;2022-08-21T14:49:34;34.90;40.30
38488;DHT22;57384;51.986;4.458;2022-08-21T14:52:00;34.80;40.40
38488;DHT22;57384;51.986;4.458;2022-08-21T14:54:28;34.70;40.40
38488;DHT22;57384;51.986;4.458;2022-08-21T14:56:54;34.50;40.40
38488;DHT22;57384;51.986;4.458;2022-08-21T14:59:21;34.40;40.50
38488;DHT22;57384;51.986;4.458;2022-08-21T15:01:48;34.30;40.50
38488;DHT22;57384;51.986;4.458;2022-08-21T15:04:15;34.10;41.20
38488;DHT22;57384;51.986;4.458;2022-08-21T15:06:41;34.00;40.60
38488;DHT22;57384;51.986;4.458;2022-08-21T15:09:08;33.80;40.60
38488;DHT22;57384;51.986;4.458;2022-08-21T15:11:34;33.70;40.60
38488;DHT22;57384;51.986;4.458;2022-08-21T15:14:02;33.60;40.60
38488;DHT22;57384;51.986;4.458;2022-08-21T15:16:29;33.50;40.80
38488;DHT22;57384;51.986;4.458;2022-08-21T15:18:56;33.30;40.80
38488;DHT22;57384;51.986;4.458;2022-08-21T15:21:22;33.20;40.90
38488;DHT22;57384;51.986;4.458;2022-08-21T15:23:49;33.10;40.90
38488;DHT22;57384;51.986;4.458;2022-08-21T15:26:18;33.00;40.90
38488;DHT22;57384;51.986;4.458;2022-08-21T15:28:45;32.90;41.00
38488;DHT22;57384;51.986;4.458;2022-08-21T15:34:15;32.70;41.10
38488;DHT22;57384;51.986;4.458;2022-08-21T15:36:41;32.60;41.10
38488;DHT22;57384;51.986;4.458;2022-08-21T15:39:08;32.50;41.20
38488;DHT22;57384;51.986;4.458;2022-08-21T15:41:34;32.40;41.10
38488;DHT22;57384;51.986;4.458;2022-08-21T15:44:01;32.30;41.20
38488;DHT22;57384;51.986;4.458;2022-08-21T15:46:28;32.20;41.30
38488;DHT22;57384;51.986;4.458;2022-08-21T15:48:54;32.10;41.30
38488;DHT22;57384;51.986;4.458;2022-08-21T15:51:20;32.00;41.40
38488;DHT22;57384;51.986;4.458;2022-08-21T15:53:47;31.90;41.50
38488;DHT22;57384;51.986;4.458;2022-08-21T15:56:33;31.80;41.60
38488;DHT22;57384;51.986;4.458;2022-08-21T15:59:02;31.70;41.70
38488;DHT22;57384;51.986;4.458;2022-08-21T16:01:29;31.60;41.70
38488;DHT22;57384;51.986;4.458;2022-08-21T16:03:56;31.40;41.80
38488;DHT22;57384;51.986;4.458;2022-08-21T16:06:23;31.30;41.90
38488;DHT22;57384;51.986;4.458;2022-08-21T16:08:49;31.20;41.90
38488;DHT22;57384;51.986;4.458;2022-08-21T16:11:15;31.10;42.00
38488;DHT22;57384;51.986;4.458;2022-08-21T16:13:43;31.00;42.10
38488;DHT22;57384;51.986;4.458;2022-08-21T16:16:11;30.90;42.20
38488;DHT22;57384;51.986;4.458;2022-08-21T16:18:38;30.90;42.30
38488;DHT22;57384;51.986;4.458;2022-08-21T16:21:05;30.80;42.30
38488;DHT22;57384;51.986;4.458;2022-08-21T16:23:31;30.60;42.30
38488;DHT22;57384;51.986;4.458;2022-08-21T16:25:58;30.60;42.50
38488;DHT22;57384;51.986;4.458;2022-08-21T16:28:25;30.50;42.50
38488;DHT22;57384;51.986;4.458;2022-08-21T16:30:51;30.40;42.60
38488;DHT22;57384;51.986;4.458;2022-08-21T16:33:23;30.30;42.60
38488;DHT22;57384;51.986;4.458;2022-08-21T16:35:50;30.20;42.70
38488;DHT22;57384;51.986;4.458;2022-08-21T16:38:17;30.10;42.70
38488;DHT22;57384;51.986;4.458;2022-08-21T16:40:43;30.00;42.80
38488;DHT22;57384;51.986;4.458;2022-08-21T16:43:10;29.90;42.90
38488;DHT22;57384;51.986;4.458;2022-08-21T16:45:36;29.80;42.90
38488;DHT22;57384;51.986;4.458;2022-08-21T16:48:03;29.70;43.00
38488;DHT22;57384;51.986;4.458;2022-08-21T16:50:29;29.70;43.10
38488;DHT22;57384;51.986;4.458;2022-08-21T16:52:56;29.60;43.20
38488;DHT22;57384;51.986;4.458;2022-08-21T16:55:22;29.50;43.20
38488;DHT22;57384;51.986;4.458;2022-08-21T16:57:52;29.40;43.30
38488;DHT22;57384;51.986;4.458;2022-08-21T17:00:18;29.30;43.30
38488;DHT22;57384;51.986;4.458;2022-08-21T17:02:48;29.20;43.40
38488;DHT22;57384;51.986;4.458;2022-08-21T17:05:16;29.10;43.50
38488;DHT22;57384;51.986;4.458;2022-08-21T17:07:42;29.00;43.50
38488;DHT22;57384;51.986;4.458;2022-08-21T17:10:09;29.00;43.70
38488;DHT22;57384;51.986;4.458;2022-08-21T17:12:37;28.90;43.70
38488;DHT22;57384;51.986;4.458;2022-08-21T17:15:06;28.80;43.70
38488;DHT22;57384;51.986;4.458;2022-08-21T17:17:34;28.80;43.90
38488;DHT22;57384;51.986;4.458;2022-08-21T17:20:01;28.70;44.10
38488;DHT22;57384;51.986;4.458;2022-08-21T17:22:28;28.60;44.00
38488;DHT22;57384;51.986;4.458;2022-08-21T17:24:57;28.50;44.10
38488;DHT22;57384;51.986;4.458;2022-08-21T17:27:23;28.40;44.10
38488;DHT22;57384;51.986;4.458;2022-08-21T17:29:51;28.30;44.20
38488;DHT22;57384;51.986;4.458;2022-08-21T17:32:17;28.30;44.30
38488;DHT22;57384;51.986;4.458;2022-08-21T17:34:44;28.20;44.40
38488;DHT22;57384;51.986;4.458;2022-08-21T17:37:11;28.10;44.40
38488;DHT22;57384;51.986;4.458;2022-08-21T17:39:37;28.00;44.50
38488;DHT22;57384;51.986;4.458;2022-08-21T17:42:07;28.00;44.60
38488;DHT22;57384;51.986;4.458;2022-08-21T17:44:36;27.90;44.70
38488;DHT22;57384;51.986;4.458;2022-08-21T17:47:03;27.80;44.70
38488;DHT22;57384;51.986;4.458;2022-08-21T17:49:29;27.70;44.70
38488;DHT22;57384;51.986;4.458;2022-08-21T17:51:56;27.70;44.90
38488;DHT22;57384;51.986;4.458;2022-08-21T17:54:23;27.60;44.90
38488;DHT22;57384;51.986;4.458;2022-08-21T17:56:49;27.50;45.00
38488;DHT22;57384;51.986;4.458;2022-08-21T17:59:16;27.40;45.00
38488;DHT22;57384;51.986;4.458;2022-08-21T18:01:43;27.30;45.10
38488;DHT22;57384;51.986;4.458;2022-08-21T18:04:15;27.30;45.20
38488;DHT22;57384;51.986;4.458;2022-08-21T18:06:43;27.20;45.20
38488;DHT22;57384;51.986;4.458;2022-08-21T18:09:09;27.10;45.30
38488;DHT22;57384;51.986;4.458;2022-08-21T18:11:37;27.10;45.40
38488;DHT22;57384;51.986;4.458;2022-08-21T18:14:05;27.00;45.40
38488;DHT22;57384;51.986;4.458;2022-08-21T18:16:32;26.90;45.40
38488;DHT22;57384;51.986;4.458;2022-08-21T18:19:00;26.90;45.60
38488;DHT22;57384;51.986;4.458;2022-08-21T18:21:27;26.80;45.60
38488;DHT22;57384;51.986;4.458;2022-08-21T18:23:53;26.70;45.60
38488;DHT22;57384;51.986;4.458;2022-08-21T18:26:27;26.60;45.70
38488;DHT22;57384;51.986;4.458;2022-08-21T18:28:55;26.50;45.70
38488;DHT22;57384;51.986;4.458;2022-08-21T18:31:22;26.50;45.80
38488;DHT22;57384;51.986;4.458;2022-08-21T18:33:49;26.40;45.80
38488;DHT22;57384;51.986;4.458;2022-08-21T18:36:16;26.30;45.80
38488;DHT22;57384;51.986;4.458;2022-08-21T18:38:43;26.20;45.80
38488;DHT22;57384;51.986;4.458;2022-08-21T18:41:10;26.20;45.90
38488;DHT22;57384;51.986;4.458;2022-08-21T18:43:37;26.10;46.00
38488;DHT22;57384;51.986;4.458;2022-08-21T18:46:10;26.00;46.00
38488;DHT22;57384;51.986;4.458;2022-08-21T18:48:37;25.90;46.00
38488;DHT22;57384;51.986;4.458;2022-08-21T18:51:07;25.90;46.10
38488;DHT22;57384;51.986;4.458;2022-08-21T18:53:33;25.80;46.20
38488;DHT22;57384;51.986;4.458;2022-08-21T18:56:00;25.70;46.20